createdAt,value
2023-01-21T00:00:33.052Z,70.72
2023-01-21T00:03:35.287Z,70.35
2023-01-21T00:06:37.932Z,70.60
2023-01-21T00:13:00.518Z,71.03
2023-01-21T00:16:03.220Z,70.47
2023-01-21T00:19:05.159Z,71.61
2023-01-21T00:22:07.741Z,70.99
2023-01-21T00:25:10.740Z,71.98
2023-01-21T00:28:12.732Z,72.91
2023-01-21T00:31:15.362Z,72.54
2023-01-21T00:34:17.527Z,71.59
2023-01-21T00:37:20.105Z,70.53
2023-01-21T00:40:22.800Z,72.12
2023-01-21T00:43:24.198Z,71.01
2023-01-21T00:46:26.929Z,70.57
2023-01-21T00:49:29.073Z,72.07
2023-01-21T00:52:31.758Z,71.44
2023-01-21T00:55:34.845Z,71.70
2023-01-21T00:58:36.368Z,71.56
2023-01-21T01:01:39.308Z,70.71
2023-01-21T01:04:41.576Z,71.40
2023-01-21T01:07:46.526Z,70.56
2023-01-21T01:10:49.133Z,71.11
2023-01-21T01:13:50.426Z,72.20
2023-01-21T01:16:52.968Z,71.68
2023-01-21T01:19:55.097Z,72.61
2023-01-21T01:22:57.659Z,71.42
2023-01-21T01:26:02.035Z,71.71
2023-01-21T01:29:03.774Z,71.65
2023-01-21T01:32:07.047Z,71.95
2023-01-21T01:35:09.819Z,72.05
2023-01-21T01:38:14.488Z,71.84
2023-01-21T01:41:17.572Z,71.44
2023-01-21T01:45:00.007Z,70.63
2023-01-21T01:48:06.734Z,70.74
2023-01-21T01:51:10.401Z,71.71
2023-01-21T01:54:16.151Z,70.58
2023-01-21T01:57:21.473Z,69.92
2023-01-21T02:00:24.510Z,69.91
2023-01-21T02:03:45.496Z,70.23
2023-01-21T02:06:48.574Z,69.63
2023-01-21T02:09:53.438Z,71.08
2023-01-21T02:12:56.004Z,70.76
2023-01-21T02:19:52.157Z,71.04
2023-01-21T02:23:02.799Z,71.67
2023-01-21T02:26:31.167Z,71.41
2023-01-21T02:30:09.243Z,70.87
2023-01-21T02:33:39.195Z,70.60
2023-01-21T02:37:07.748Z,70.92
2023-01-21T02:40:21.193Z,69.67
2023-01-21T02:43:35.475Z,70.49
2023-01-21T02:46:42.224Z,70.66
2023-01-21T02:49:49.952Z,70.63
2023-01-21T02:52:55.437Z,70.63
2023-01-21T02:59:22.316Z,70.14
2023-01-21T03:02:41.811Z,70.93
2023-01-21T03:09:33.260Z,71.03
2023-01-21T03:12:44.135Z,70.13
2023-01-21T03:16:12.094Z,70.54
2023-01-21T03:19:17.633Z,70.41
2023-01-21T03:22:26.498Z,70.04
2023-01-21T03:25:32.019Z,70.84
2023-01-21T03:28:39.387Z,70.86
2023-01-21T03:31:46.141Z,70.33
2023-01-21T03:34:52.009Z,70.04
2023-01-21T03:41:25.963Z,69.83
2023-01-21T03:44:27.274Z,69.33
2023-01-21T03:47:33.984Z,69.77
2023-01-21T03:50:39.705Z,70.64
2023-01-21T03:53:43.968Z,70.23
2023-01-21T03:56:45.296Z,70.29
2023-01-21T03:59:47.903Z,69.50
2023-01-21T04:02:49.222Z,69.67
2023-01-21T04:05:50.939Z,69.63
2023-01-21T04:08:54.154Z,69.29
2023-01-21T04:11:55.479Z,69.91
2023-01-21T04:14:58.662Z,69.70
2023-01-21T04:18:01.220Z,68.94
2023-01-21T04:21:02.517Z,69.39
2023-01-21T04:24:06.936Z,69.86
2023-01-21T04:27:08.247Z,70.15
2023-01-21T04:30:11.739Z,70.64
2023-01-21T04:33:14.474Z,70.63
2023-01-21T04:36:15.792Z,69.98
2023-01-21T04:39:19.077Z,70.63
2023-01-21T04:42:20.337Z,70.43
2023-01-21T04:45:22.079Z,69.91
2023-01-21T04:48:23.375Z,70.45
2023-01-21T04:51:24.657Z,70.77
2023-01-21T04:54:27.993Z,70.50
2023-01-21T04:57:29.595Z,70.66
2023-01-21T05:00:30.905Z,70.42
2023-01-21T05:03:32.189Z,71.46
2023-01-21T05:06:35.874Z,71.18
2023-01-21T05:09:37.963Z,70.34
2023-01-21T05:12:40.531Z,71.30
2023-01-21T05:15:41.825Z,72.12
2023-01-21T05:18:46.788Z,71.72
2023-01-21T05:21:48.216Z,71.15
2023-01-21T05:24:51.468Z,70.76
2023-01-21T05:27:55.006Z,70.35
2023-01-21T05:31:00.076Z,70.96
2023-01-21T05:34:01.820Z,70.29
2023-01-21T05:37:03.217Z,70.59
2023-01-21T05:40:06.639Z,71.55
2023-01-21T05:43:09.189Z,71.17
2023-01-21T05:46:10.694Z,71.33
2023-01-21T05:49:13.249Z,71.73
2023-01-21T05:52:14.580Z,72.11
2023-01-21T05:55:16.767Z,71.20
2023-01-21T06:01:38.719Z,70.49
2023-01-21T06:04:41.229Z,71.40
2023-01-21T06:07:42.576Z,70.47
2023-01-21T06:10:45.891Z,71.22
2023-01-21T06:13:48.472Z,70.78
2023-01-21T06:16:49.802Z,70.97
2023-01-21T06:19:52.334Z,70.42
2023-01-21T06:22:53.616Z,70.65
2023-01-21T06:26:00.693Z,70.84
2023-01-21T06:29:02.523Z,71.10
2023-01-21T06:32:04.460Z,70.63
2023-01-21T06:35:07.503Z,70.88
2023-01-21T06:38:08.822Z,70.72
2023-01-21T06:41:12.015Z,71.15
2023-01-21T06:44:14.564Z,70.91
2023-01-21T06:47:15.857Z,70.41
2023-01-21T06:50:19.355Z,70.49
2023-01-21T06:53:20.751Z,69.97
2023-01-21T06:56:23.940Z,70.34
2023-01-21T06:59:25.368Z,70.08
2023-01-21T07:02:26.842Z,70.60
2023-01-21T07:05:28.174Z,69.72
2023-01-21T07:08:29.491Z,69.30
2023-01-21T07:11:32.994Z,69.58
2023-01-21T07:14:35.611Z,70.15
2023-01-21T07:17:37.804Z,69.98
2023-01-21T07:20:41.018Z,70.37
2023-01-21T07:23:42.560Z,70.86
2023-01-21T07:26:45.772Z,70.81
2023-01-21T07:29:48.764Z,70.65
2023-01-21T07:32:51.340Z,70.03
2023-01-21T07:35:53.918Z,70.65
2023-01-21T07:38:55.576Z,70.70
2023-01-21T07:41:58.815Z,71.12
2023-01-21T07:45:02.120Z,70.81
2023-01-21T07:48:05.179Z,71.13
2023-01-21T07:51:07.878Z,70.26
2023-01-21T07:54:10.120Z,69.84
2023-01-21T07:57:14.227Z,69.89
2023-01-21T08:00:17.212Z,69.40
2023-01-21T08:10:04.776Z,69.56
2023-01-21T08:13:07.184Z,70.12
2023-01-21T08:16:10.881Z,68.69
2023-01-21T08:19:13.954Z,70.08
2023-01-21T08:22:16.732Z,69.02
2023-01-21T08:25:19.535Z,69.45
2023-01-21T08:28:21.668Z,69.11
2023-01-21T08:34:43.953Z,69.58
2023-01-21T08:37:45.326Z,69.79
2023-01-21T08:40:46.587Z,69.36
2023-01-21T08:43:48.564Z,69.33
2023-01-21T08:46:51.155Z,68.84
2023-01-21T08:49:52.471Z,68.85
2023-01-21T08:52:55.271Z,69.09
2023-01-21T08:55:58.580Z,69.46
2023-01-21T08:59:02.141Z,67.64
2023-01-21T09:02:04.756Z,68.58
2023-01-21T09:05:07.145Z,68.18
2023-01-21T09:08:10.077Z,68.74
2023-01-21T09:11:11.559Z,67.92
2023-01-21T09:14:14.782Z,68.54
2023-01-21T09:17:17.332Z,67.92
2023-01-21T09:20:18.642Z,68.17
2023-01-21T09:23:25.862Z,68.45
2023-01-21T09:26:27.794Z,68.46
2023-01-21T09:29:30.984Z,67.92
2023-01-21T09:32:32.891Z,67.86
2023-01-21T09:35:35.452Z,67.58
2023-01-21T09:38:38.106Z,68.25
2023-01-21T09:41:45.204Z,67.64
2023-01-21T09:44:51.032Z,67.80
2023-01-21T09:47:55.581Z,68.30
2023-01-21T09:50:59.989Z,67.13
2023-01-21T09:54:04.978Z,67.16
2023-01-21T09:57:22.380Z,67.22
2023-01-21T10:00:34.846Z,67.85
2023-01-21T10:03:44.877Z,66.64
2023-01-21T10:06:51.044Z,66.70
2023-01-21T10:10:05.049Z,67.56
2023-01-21T10:13:24.318Z,66.80
2023-01-21T10:16:32.916Z,66.34
2023-01-21T10:19:38.850Z,65.99
2023-01-21T10:22:46.683Z,66.40
2023-01-21T10:25:50.674Z,66.50
2023-01-21T10:28:54.545Z,66.52
2023-01-21T10:32:03.538Z,65.49
2023-01-21T10:35:16.749Z,66.34
2023-01-21T10:38:30.981Z,66.03
2023-01-21T10:41:52.328Z,66.26
2023-01-21T10:45:00.560Z,67.31
2023-01-21T10:48:12.115Z,67.32
2023-01-21T10:51:18.750Z,66.88
2023-01-21T10:54:25.304Z,66.26
2023-01-21T10:57:40.953Z,67.21
2023-01-21T11:00:48.386Z,66.38
2023-01-21T11:03:53.867Z,66.67
2023-01-21T11:06:59.953Z,66.55
2023-01-21T11:10:03.026Z,66.23
2023-01-21T11:13:12.751Z,66.71
2023-01-21T11:16:30.025Z,66.56
2023-01-21T11:19:33.206Z,66.17
2023-01-21T11:22:42.846Z,65.78
2023-01-21T11:25:45.441Z,65.23
2023-01-21T11:28:46.703Z,65.41
2023-01-21T11:31:51.884Z,65.38
2023-01-21T11:35:03.372Z,65.83
2023-01-21T11:38:05.376Z,65.33
2023-01-21T11:41:17.676Z,65.64
2023-01-21T11:44:21.882Z,65.29
2023-01-21T11:47:29.049Z,65.65
2023-01-21T11:50:35.223Z,64.12
2023-01-21T11:53:37.546Z,64.64
2023-01-21T11:56:40.048Z,64.29
2023-01-21T11:59:46.689Z,65.05
2023-01-21T12:02:51.622Z,65.07
2023-01-21T12:05:55.157Z,64.35
2023-01-21T12:09:01.677Z,65.51
2023-01-21T12:12:27.887Z,65.73
2023-01-21T12:15:44.469Z,66.47
2023-01-21T12:19:23.467Z,66.17
2023-01-21T12:22:57.392Z,65.80
2023-01-21T12:26:00.810Z,65.39
2023-01-21T12:29:19.584Z,64.41
2023-01-21T12:32:26.231Z,65.13
2023-01-21T12:35:33.253Z,64.81
2023-01-21T12:38:40.773Z,64.02
2023-01-21T12:41:46.904Z,63.99
2023-01-21T12:44:53.037Z,64.11
2023-01-21T12:47:58.717Z,64.17
2023-01-21T12:51:05.670Z,63.42
2023-01-21T12:54:17.579Z,63.14
2023-01-21T12:57:25.363Z,63.75
2023-01-21T13:00:34.121Z,63.20
2023-01-21T13:03:47.727Z,63.47
2023-01-21T13:06:57.638Z,63.14
2023-01-21T13:10:11.171Z,63.42
2023-01-21T13:13:17.764Z,63.22
2023-01-21T13:16:22.571Z,63.16
2023-01-21T13:19:25.103Z,63.36
2023-01-21T13:22:36.248Z,62.95
2023-01-21T13:25:44.343Z,62.16
2023-01-21T13:28:53.149Z,63.19
2023-01-21T13:32:13.124Z,62.20
2023-01-21T13:35:28.711Z,62.51
2023-01-21T13:38:37.292Z,62.87
2023-01-21T13:42:01.174Z,62.68
2023-01-21T13:45:25.480Z,62.41
2023-01-21T13:48:44.858Z,62.73
2023-01-21T13:51:56.340Z,62.94
2023-01-21T13:55:15.138Z,62.35
2023-01-21T13:58:25.063Z,62.44
2023-01-21T14:01:32.397Z,61.55
2023-01-21T14:04:40.678Z,62.01
2023-01-21T14:07:46.880Z,62.27
2023-01-21T14:10:53.640Z,62.17
2023-01-21T14:14:24.021Z,61.92
2023-01-21T14:17:53.767Z,61.89
2023-01-21T14:28:21.537Z,60.85
2023-01-21T14:31:31.362Z,61.00
2023-01-21T14:34:40.263Z,60.87
2023-01-21T14:37:44.954Z,61.25
2023-01-21T14:40:50.128Z,61.08
2023-01-21T14:43:52.398Z,60.54
2023-01-21T14:47:17.699Z,60.07
2023-01-21T14:50:45.674Z,60.44
2023-01-21T14:53:49.303Z,60.59
2023-01-21T14:56:52.835Z,59.92
2023-01-21T15:00:10.201Z,60.21
2023-01-21T15:03:16.869Z,59.40
2023-01-21T15:06:22.201Z,59.71
2023-01-21T15:12:53.684Z,59.38
2023-01-21T15:16:12.311Z,59.43
2023-01-21T15:19:27.305Z,58.49
2023-01-21T15:22:40.242Z,58.52
2023-01-21T15:26:03.319Z,59.18
2023-01-21T15:29:33.092Z,59.54
2023-01-21T15:32:37.858Z,59.66
2023-01-21T15:35:41.979Z,59.51
2023-01-21T15:38:43.376Z,58.66
2023-01-21T15:42:03.973Z,59.62
2023-01-21T15:45:19.808Z,60.18
2023-01-21T15:48:46.404Z,61.42
2023-01-21T15:52:01.210Z,62.06
2023-01-21T15:55:24.848Z,62.64
2023-01-21T15:58:36.319Z,63.93
2023-01-21T16:01:38.700Z,65.58
2023-01-21T16:08:22.765Z,67.26
2023-01-21T16:11:48.710Z,68.17
2023-01-21T16:15:01.616Z,68.50
2023-01-21T16:18:13.388Z,68.32
2023-01-21T16:21:20.803Z,68.54
2023-01-21T16:24:27.004Z,69.16
2023-01-21T16:27:30.413Z,70.50
2023-01-21T16:30:31.877Z,70.80
2023-01-21T16:33:34.456Z,71.60
2023-01-21T16:36:37.977Z,72.55
2023-01-21T16:39:41.763Z,72.35
2023-01-21T16:42:44.002Z,73.91
2023-01-21T16:45:51.855Z,73.54
2023-01-21T16:48:56.536Z,73.17
2023-01-21T16:52:01.125Z,73.75
2023-01-21T16:55:18.593Z,74.81
2023-01-21T16:58:25.518Z,75.07
2023-01-21T17:01:27.895Z,75.73
2023-01-21T17:04:30.774Z,75.87
2023-01-21T17:07:37.654Z,75.85
2023-01-21T17:10:52.340Z,75.23
2023-01-21T17:13:53.912Z,76.60
2023-01-21T17:16:58.319Z,76.17
2023-01-21T17:20:01.446Z,76.58
2023-01-21T17:23:06.611Z,77.16
2023-01-21T17:26:18.151Z,76.55
2023-01-21T17:29:23.317Z,76.49
2023-01-21T17:32:26.245Z,76.47
2023-01-21T17:35:29.651Z,75.69
2023-01-21T17:38:30.969Z,75.92
2023-01-21T17:41:38.122Z,75.95
2023-01-21T17:44:39.497Z,76.89
2023-01-21T17:48:03.212Z,76.89
2023-01-21T17:54:29.042Z,77.44
2023-01-21T17:57:33.877Z,76.37
2023-01-21T18:00:40.226Z,76.64
2023-01-21T18:03:42.114Z,78.05
2023-01-21T18:06:45.649Z,77.51
2023-01-21T18:09:46.965Z,76.48
2023-01-21T18:16:09.143Z,78.26
2023-01-21T18:19:27.266Z,77.17
2023-01-21T18:22:32.286Z,78.39
2023-01-21T18:25:33.635Z,77.93
2023-01-21T18:28:36.885Z,78.91
2023-01-21T18:31:40.784Z,78.84
2023-01-21T18:34:42.286Z,77.83
2023-01-21T18:37:45.275Z,78.74
2023-01-21T18:40:46.592Z,78.47
2023-01-21T18:43:49.805Z,78.07
2023-01-21T18:46:51.201Z,78.24
2023-01-21T18:49:53.892Z,77.88
2023-01-21T18:52:55.468Z,79.34
2023-01-21T18:55:58.285Z,79.03
2023-01-21T18:59:01.824Z,78.74
2023-01-21T19:02:03.242Z,78.31
2023-01-21T19:05:06.359Z,79.19
2023-01-21T19:08:13.067Z,78.82
2023-01-21T19:11:14.506Z,78.39
2023-01-21T19:14:18.190Z,78.82
2023-01-21T19:17:25.009Z,78.48
2023-01-21T19:20:28.399Z,78.32
2023-01-21T19:23:29.703Z,79.03
2023-01-21T19:26:32.343Z,78.08
2023-01-21T19:29:38.290Z,78.93
2023-01-21T19:32:39.650Z,79.79
2023-01-21T19:35:45.098Z,78.64
2023-01-21T19:38:52.728Z,78.75
2023-01-21T19:42:07.545Z,78.91
2023-01-21T19:45:11.581Z,78.48
2023-01-21T19:48:17.302Z,78.74
2023-01-21T19:51:18.734Z,79.26
2023-01-21T19:54:21.442Z,78.61
2023-01-21T19:57:24.035Z,79.25
2023-01-21T20:00:27.603Z,79.52
2023-01-21T20:06:51.346Z,79.03
2023-01-21T20:09:52.633Z,79.36
2023-01-21T20:12:54.162Z,78.12
2023-01-21T20:16:01.828Z,78.20
2023-01-21T20:19:03.427Z,78.94
2023-01-21T20:22:04.757Z,79.63
2023-01-21T20:25:06.952Z,79.39
2023-01-21T20:28:16.432Z,78.51
2023-01-21T20:31:18.938Z,79.34
2023-01-21T20:34:21.619Z,80.37
2023-01-21T20:37:23.346Z,78.77
2023-01-21T20:40:27.910Z,79.65
2023-01-21T20:43:29.345Z,79.17
2023-01-21T20:46:32.719Z,78.56
2023-01-21T20:49:34.201Z,78.64
2023-01-21T20:52:36.726Z,78.52
2023-01-21T20:55:39.162Z,79.47
2023-01-21T20:58:45.335Z,79.05
2023-01-21T21:01:47.501Z,78.86
2023-01-21T21:08:13.786Z,79.23
2023-01-21T21:14:38.047Z,78.18
2023-01-21T21:17:41.223Z,79.47
2023-01-21T21:20:43.827Z,79.66
2023-01-21T21:23:45.834Z,78.77
2023-01-21T21:26:48.376Z,78.78
2023-01-21T21:29:55.401Z,78.20
2023-01-21T21:33:00.195Z,78.30
2023-01-21T21:36:02.724Z,78.66
2023-01-21T21:39:05.283Z,79.22
2023-01-21T21:42:26.946Z,79.51
2023-01-21T21:45:29.485Z,79.75
2023-01-21T21:48:37.490Z,78.39
2023-01-21T21:51:40.211Z,78.98
2023-01-21T21:54:42.081Z,79.14
2023-01-21T21:57:44.620Z,77.46
2023-01-21T22:00:47.531Z,78.30
2023-01-21T22:03:49.609Z,78.91
2023-01-21T22:06:52.199Z,77.50
2023-01-21T22:09:54.736Z,78.73
2023-01-21T22:12:56.021Z,78.68
2023-01-21T22:16:00.691Z,78.78
2023-01-21T22:19:02.760Z,78.43
2023-01-21T22:22:05.374Z,78.85
2023-01-21T22:25:09.961Z,78.70
2023-01-21T22:28:12.495Z,78.03
2023-01-21T22:31:15.690Z,78.05
2023-01-21T22:34:18.984Z,77.61
2023-01-21T22:37:21.568Z,78.12
2023-01-21T22:40:22.894Z,78.57
2023-01-21T22:43:25.521Z,78.80
2023-01-21T22:46:30.440Z,78.50
2023-01-21T22:49:32.425Z,79.43
2023-01-21T22:52:34.983Z,78.89
2023-01-21T22:55:38.642Z,78.76
2023-01-21T22:58:40.032Z,79.50
2023-01-21T23:01:43.038Z,78.49
2023-01-21T23:04:45.452Z,78.64
2023-01-21T23:07:48.021Z,78.72
2023-01-21T23:10:49.289Z,79.44
2023-01-21T23:13:53.642Z,78.69
2023-01-21T23:16:56.239Z,78.79
2023-01-21T23:19:58.177Z,79.76
2023-01-21T23:23:00.738Z,77.74
2023-01-21T23:26:03.559Z,78.82
2023-01-21T23:29:04.890Z,79.87
2023-01-21T23:32:07.541Z,79.65
2023-01-21T23:35:09.683Z,78.69
2023-01-21T23:38:12.284Z,78.33
2023-01-21T23:41:16.064Z,78.28
2023-01-21T23:44:18.601Z,78.46
2023-01-21T23:47:20.050Z,78.61
2023-01-21T23:50:23.384Z,78.33
2023-01-21T23:53:25.919Z,78.71
2023-01-21T23:56:27.227Z,78.16
2023-01-21T23:59:29.783Z,78.84
